MMTM/TAM METAR and TAF weather

Enter ICAO airport designator
Station Type Date Time Source
MMTM METAR 2019/12/14 18:46 UTC NOAA

MMTM 141846Z E19005KT 6SM SKC 25/20 A2990 RMK HZY


Station Type Date Time Source
MMTM Decoded METAR 2019/12/14 18:46 UTC NOAA

Tampico / Gen Fj Mina, Mexico (MMTM) 22-17N 097-52W
Dec 14, 2019 - 01:46 PM EST / 2019.12.14 1846 UTC
Visibility: 6 mile(s):0
Sky conditions: clear
Temperature: 77 F (25 C)
Dew Point: 68 F (20 C)
Relative Humidity: 73%
Pressure (altimeter): 29.9 in. Hg (1012 hPa)
ob: MMTM 141846Z E19005KT 6SM SKC 25/20 A2990 RMK HZY
cycle: 19

Station Type Date Time Source
MMTM TAF 2019/12/14 18:09 UTC NOAA

TAF MMTM 141603Z 1418/1518 13010KT 4SM HZ SCT010
FM150200 16004KT P6SM SCT015
BECMG 1508/1509 1/2SM FG VV005
FM151600 18010KT 5SM HZ SCT020 BKN050

Example: see airport list